地図

経路データ

SID SEASON NUMBER BASIN SUBBASIN NAME ISO_TIME NATURE LAT LON WMO_WIND WMO_PRES WMO_AGENCY TRACK_TYPE DIST2LAND LANDFALL IFLAG USA_AGENCY USA_ATCF_ID USA_LAT USA_LON USA_RECORD USA_STATUS USA_WIND USA_PRES USA_SSHS USA_R34_NE USA_R34_SE USA_R34_SW USA_R34_NW USA_R50_NE USA_R50_SE USA_R50_SW USA_R50_NW USA_R64_NE USA_R64_SE USA_R64_SW USA_R64_NW USA_POCI USA_ROCI USA_RMW USA_EYE TOKYO_LAT TOKYO_LON TOKYO_GRADE TOKYO_WIND TOKYO_PRES TOKYO_R50_DIR TOKYO_R50_LONG TOKYO_R50_SHORT TOKYO_R30_DIR TOKYO_R30_LONG TOKYO_R30_SHORT TOKYO_LAND CMA_LAT CMA_LON CMA_CAT CMA_WIND CMA_PRES HKO_LAT HKO_LON HKO_CAT HKO_WIND HKO_PRES NEWDELHI_LAT NEWDELHI_LON NEWDELHI_GRADE NEWDELHI_WIND NEWDELHI_PRES NEWDELHI_CI NEWDELHI_DP NEWDELHI_POCI REUNION_LAT REUNION_LON REUNION_TYPE REUNION_WIND REUNION_PRES REUNION_TNUM REUNION_CI REUNION_RMW REUNION_R34_NE REUNION_R34_SE REUNION_R34_SW REUNION_R34_NW REUNION_R50_NE REUNION_R50_SE REUNION_R50_SW REUNION_R50_NW REUNION_R64_NE REUNION_R64_SE REUNION_R64_SW REUNION_R64_NW BOM_LAT BOM_LON BOM_TYPE BOM_WIND BOM_PRES BOM_TNUM BOM_CI BOM_RMW BOM_R34_NE BOM_R34_SE BOM_R34_SW BOM_R34_NW BOM_R50_NE BOM_R50_SE BOM_R50_SW BOM_R50_NW BOM_R64_NE BOM_R64_SE BOM_R64_SW BOM_R64_NW BOM_ROCI BOM_POCI BOM_EYE BOM_POS_METHOD BOM_PRES_METHOD NADI_LAT NADI_LON NADI_CAT NADI_WIND NADI_PRES WELLINGTON_LAT WELLINGTON_LON WELLINGTON_WIND WELLINGTON_PRES DS824_LAT DS824_LON DS824_STAGE DS824_WIND DS824_PRES TD9636_LAT TD9636_LON TD9636_STAGE TD9636_WIND TD9636_PRES TD9635_LAT TD9635_LON TD9635_WIND TD9635_PRES TD9635_ROCI NEUMANN_LAT NEUMANN_LON NEUMANN_CLASS NEUMANN_WIND NEUMANN_PRES MLC_LAT MLC_LON MLC_CLASS MLC_WIND MLC_PRES USA_GUST BOM_GUST BOM_GUST_PER REUNION_GUST REUNION_GUST_PER USA_SEAHGT USA_SEARAD_NE USA_SEARAD_SE USA_SEARAD_SW USA_SEARAD_NW STORM_SPEED STORM_DIR
1944297S05070 1945 74 SI MM NOT_NAMED 1944-10-22 18:00:00 NR -4.50000 69.6000 main 1650 1650 __________O___ -1 -4.50000 69.6000 7 4 225
1944297S05070 1945 74 SI MM NOT_NAMED 1944-10-22 21:00:00 NR -4.62502 69.4719 main 1665 1665 __________P___ -1 -4.62502 69.4719 7 4 225
1944297S05070 1945 74 SI MM NOT_NAMED 1944-10-23 00:00:00 NR -4.75002 69.3450 main 1696 1696 __________P___ -1 -4.75002 69.3450 7 4 225
1944297S05070 1945 74 SI MM NOT_NAMED 1944-10-23 03:00:00 NR -4.87501 69.2206 main 1711 1711 __________P___ -1 -4.87501 69.2206 7 4 224
1944297S05070 1945 74 SI MM NOT_NAMED 1944-10-23 06:00:00 TS -5.00000 69.1000 main 1727 1727 _________OO___ -1 -5.00000 69.1000 TC 25 -5.00000 69.1000 7 3 224
1944297S05070 1945 74 SI MM NOT_NAMED 1944-10-23 09:00:00 TS -5.11333 68.9906 main 1742 1742 _________PP___ -1 -5.09000 69.0025 TC 25 -5.12500 68.9847 7 3 223
1944297S05070 1945 74 SI MM NOT_NAMED 1944-10-23 12:00:00 TS -5.22857 68.8871 main 1758 1758 _________OP___ -1 -5.20000 68.9000 TC 25 -5.25000 68.8775 7 3 219
1944297S05070 1945 74 SI MM NOT_NAMED 1944-10-23 15:00:00 TS -5.35875 68.7870 main 1782 1782 _________PP___ -1 -5.34250 68.7925 TC 25 -5.37500 68.7816 7 3 214
1944297S05070 1945 74 SI MM NOT_NAMED 1944-10-23 18:00:00 TS -5.50000 68.7000 main 1798 1798 _________OO___ -1 -5.50000 68.7000 TC 25 -5.50000 68.7000 7 3 207
1944297S05070 1945 74 SI MM NOT_NAMED 1944-10-23 21:00:00 TS -5.63921 68.6451 main 1813 1813 _________PP___ -1 -5.65750 68.6425 TC 25 -5.62092 68.6478 7 3 200
1944297S05070 1945 74 SI MM NOT_NAMED 1944-10-24 00:00:00 TS -5.77124 68.6037 main 1832 1832 _________OP___ -1 -5.80000 68.6000 TC 25 -5.74247 68.6074 7 3 199
1944297S05070 1945 74 SI MM NOT_NAMED 1944-10-24 03:00:00 TS -5.88389 68.5604 main 1842 1842 _________PP___ -1 -5.90000 68.5575 TC 30 -5.86779 68.5634 7 3 204
1944297S05070 1945 74 SI MM NOT_NAMED 1944-10-24 06:00:00 TS -6.00000 68.5000 main 1857 1857 _________OO___ -1 -6.00000 68.5000 TC 35 -6.00000 68.5000 2 3 211
1944297S05070 1945 74 SI MM NOT_NAMED 1944-10-24 09:00:00 TS -6.14063 68.4058 main 1872 1872 _________PP___ -1 -6.14250 68.4150 TC 35 -6.13876 68.3966 2 4 216
1944297S05070 1945 74 SI MM NOT_NAMED 1944-10-24 12:00:00 TS -6.29251 68.2863 main 1897 1897 _________OP___ -1 -6.30000 68.3000 TC 35 -6.28501 68.2725 2 4 221
1944297S05070 1945 74 SI MM NOT_NAMED 1944-10-24 15:00:00 TS -6.44063 68.1436 main 1901 1876 _________PP___ -1 -6.44251 68.1500 TC 35 -6.43876 68.1372 2 4 223
1944297S05070 1945 74 SI MM NOT_NAMED 1944-10-24 18:00:00 TS -6.60000 68.0000 main 1876 1851 _________OO___ -1 -6.60000 68.0000 TC 35 -6.60000 68.0000 2 4 216
1944297S05070 1945 74 SI MM NOT_NAMED 1944-10-24 21:00:00 TS -6.78389 67.8915 main 1851 1827 _________PP___ -1 -6.79999 67.9000 TC 30 -6.76779 67.8831 2 4 210
1944297S05070 1945 74 SI MM NOT_NAMED 1944-10-25 00:00:00 TS -6.97123 67.7825 main 1827 1811 _________OP___ -1 -7.00000 67.8000 TC 25 -6.94246 67.7649 2 4 214
1944297S05070 1945 74 SI MM NOT_NAMED 1944-10-25 03:00:00 TS -7.13545 67.6484 main 1805 1780 _________PP___ -1 -7.15000 67.6575 TC 25 -7.12091 67.6393 2 4 220
1944297S05070 1945 74 SI MM NOT_NAMED 1944-10-25 06:00:00 TS -7.30000 67.5000 main 1780 1755 _________OO___ -1 -7.30000 67.5000 TC 25 -7.30000 67.5000 1 5 220
1944297S05070 1945 74 SI MM NOT_NAMED 1944-10-25 09:00:00 TS -7.48546 67.3484 main 1749 1724 _________PP___ -1 -7.49999 67.3575 TC 25 -7.47094 67.3393 1 5 220
1944297S05070 1945 74 SI MM NOT_NAMED 1944-10-25 12:00:00 TS -7.67125 67.1825 main 1724 1702 _________OP___ -1 -7.70000 67.2000 TC 25 -7.64251 67.1650 1 5 226
1944297S05070 1945 74 SI MM NOT_NAMED 1944-10-25 15:00:00 TS -7.83391 66.9915 main 1702 1671 _________PP___ -1 -7.85001 67.0000 TC 25 -7.81781 66.9831 1 5 229
1944297S05070 1945 74 SI MM NOT_NAMED 1944-10-25 18:00:00 TS -8.00000 66.8000 main 1671 1640 _________OO___ -1 -8.00000 66.8000 TC 25 -8.00000 66.8000 1 5 224
1944297S05070 1945 74 SI MM NOT_NAMED 1944-10-25 21:00:00 TS -8.19669 66.6395 main 1640 1616 _________PP___ -1 -8.19248 66.6500 TC 25 -8.20090 66.6290 1 5 218
1944297S05070 1945 74 SI MM NOT_NAMED 1944-10-26 00:00:00 TS -8.40372 66.4787 main 1616 1585 _________OP___ -1 -8.40000 66.5000 TC 25 -8.40745 66.4575 1 5 220
1944297S05070 1945 74 SI MM NOT_NAMED 1944-10-26 03:00:00 TS -8.60889 66.2948 main 1585 1554 _________PP___ -1 -8.60750 66.3075 TC 25 -8.61027 66.2822 1 5 223
1944297S05070 1945 74 SI MM NOT_NAMED 1944-10-26 06:00:00 TS -8.80000 66.1000 main 1554 1523 _________OO___ -1 -8.80000 66.1000 TC 25 -8.80000 66.1000 1 5 228
1944297S05070 1945 74 SI MM NOT_NAMED 1944-10-26 09:00:00 TS -8.96499 65.9015 main 1523 1501 _________PP___ -1 -8.95749 65.9000 TC 25 -8.97250 65.9031 1 5 231
1944297S05070 1945 74 SI MM NOT_NAMED 1944-10-26 12:00:00 TS -9.11500 65.7000 main 1501 1470 _________OP___ -1 -9.10000 65.7000 TC 25 -9.13000 65.7000 1 5 233
1944297S05070 1945 74 SI MM NOT_NAMED 1944-10-26 15:00:00 TS -9.26500 65.4947 main 1470 1449 _________PP___ -1 -9.25750 65.4925 TC 25 -9.27250 65.4969 1 5 234
1944297S05070 1945 74 SI MM NOT_NAMED 1944-10-26 18:00:00 TS -9.40000 65.3000 main 1449 1433 _________OO___ -1 -9.40000 65.3000 TC 25 -9.40000 65.3000 1 4 235
1944297S05070 1945 74 SI MM NOT_NAMED 1944-10-26 21:00:00 TS -9.50473 65.1500 main 1433 1412 _________PP___ -1 -9.50747 65.1500 TC 25 -9.50199 65.1501 1 4 237
1944297S05070 1945 74 SI MM NOT_NAMED 1944-10-27 00:00:00 TS -9.59609 65.0011 main 1412 1391 _________OP___ -1 -9.60000 65.0000 TC 25 -9.59219 65.0021 1 4 240
1944297S05070 1945 74 SI MM NOT_NAMED 1944-10-27 03:00:00 TS -9.68938 64.8290 main 1391 1370 _________PP___ -1 -9.69245 64.8299 TC 25 -9.68630 64.8281 1 4 243
1944297S05070 1945 74 SI MM NOT_NAMED 1944-10-27 06:00:00 TS -9.80000 64.6000 main 1370 1343 _________OO___ -1 -9.80000 64.6000 TC 25 -9.80000 64.6000 1 6 245
1944297S05070 1945 74 SI MM NOT_NAMED 1944-10-27 09:00:00 TS -9.94428 64.2813 main 1343 1301 _________PP___ -1 -9.93500 64.2800 TC 25 -9.95356 64.2826 1 8 245
1944297S05070 1945 74 SI MM NOT_NAMED 1944-10-27 12:00:00 TS -10.1138 63.9050 main 1301 1260 _________OP___ -1 -10.1000 63.9000 TC 25 -10.1277 63.9101 1 8 245
1944297S05070 1945 74 SI MM NOT_NAMED 1944-10-27 15:00:00 TS -10.3065 63.5038 main 1260 1220 _________PP___ -1 -10.3000 63.5000 TC 25 -10.3129 63.5075 1 9 244
1944297S05070 1945 74 SI MM NOT_NAMED 1944-10-27 18:00:00 TS -10.5000 63.1000 main 1220 1185 _________OO___ -1 -10.5000 63.1000 TC 25 -10.5000 63.1000 1 8 245
1944297S05070 1945 74 SI MM NOT_NAMED 1944-10-27 21:00:00 TS -10.6624 62.7394 main 1180 1156 _________PP___ -1 -10.6499 62.7499 TC 25 -10.6748 62.7289 1 8 245
1944297S05070 1945 74 SI MM NOT_NAMED 1944-10-28 00:00:00 TS -10.8249 62.3786 main 1156 1117 _________OP___ -1 -10.8000 62.4000 TC 25 -10.8498 62.3573 1 8 245
1944297S05070 1945 74 SI MM NOT_NAMED 1944-10-28 03:00:00 TS -11.0086 61.9948 main 1117 1079 _________PP___ -1 -10.9925 62.0075 TC 25 -11.0248 61.9820 1 9 244
1944297S05070 1945 74 SI MM NOT_NAMED 1944-10-28 06:00:00 TS -11.2000 61.6000 main 1079 1043 _________OO___ -1 -11.2000 61.6000 TC 25 -11.2000 61.6000 1 9 244
1944297S05070 1945 74 SI MM NOT_NAMED 1944-10-28 09:00:00 TS -11.3830 61.2054 main 1043 1007 _________PP___ -1 -11.4074 61.2000 TC 25 -11.3586 61.2109 1 9 245
1944297S05070 1945 74 SI MM NOT_NAMED 1944-10-28 12:00:00 TS -11.5599 60.8072 main 1007 983 _________OP___ -1 -11.6000 60.8000 TC 25 -11.5198 60.8145 1 8 246
1944297S05070 1945 74 SI MM NOT_NAMED 1944-10-28 15:00:00 TS -11.7230 60.4128 main 983 950 _________PP___ -1 -11.7499 60.4149 TC 25 -11.6961 60.4108 1 9 247
1944297S05070 1945 74 SI MM NOT_NAMED 1944-10-28 18:00:00 TS -11.9000 60.0000 main 950 915 _________OO___ -1 -11.9000 60.0000 TC 25 -11.9000 60.0000 1 10 246
1944297S05070 1945 74 SI MM NOT_NAMED 1944-10-28 21:00:00 TS -12.1185 59.4971 main 915 872 _________PP___ -1 -12.0701 59.4924 TC 25 -12.1670 59.5017 1 11 244
1944297S05070 1945 74 SI MM NOT_NAMED 1944-10-29 00:00:00 TS -12.3791 59.0043 main 872 833 _________OP___ -1 -12.3000 59.0000 TC 25 -12.4581 59.0086 1 11 237
1944297S05070 1945 74 SI MM NOT_NAMED 1944-10-29 03:00:00 TS -12.7013 58.5769 main 833 797 _________PP___ -1 -12.6575 58.5677 TC 25 -12.7451 58.5861 1 9 228
1944297S05070 1945 74 SI MM NOT_NAMED 1944-10-29 06:00:00 TS -13.0000 58.3000 main 797 774 _________OO___ -1 -13.0000 58.3000 TC 25 -13.0000 58.3000 1 6 213
1944297S05070 1945 74 SI MM NOT_NAMED 1944-10-29 09:00:00 TS -13.1868 58.2504 main 774 763 _________PP___ -1 -13.1799 58.2823 TC 25 -13.1936 58.2185 1 3 173
1944297S05070 1945 74 SI MM NOT_NAMED 1944-10-29 12:00:00 TS -13.3260 58.3384 main 763 742 _________OP___ -1 -13.3000 58.4000 TC 25 -13.3520 58.2768 1 3 145
1944297S05070 1945 74 SI MM NOT_NAMED 1944-10-29 15:00:00 TS -13.4710 58.4534 main 743 732 _________PP___ -1 -13.4575 58.4850 TC 25 -13.4845 58.4218 1 4 137
1944297S05070 1945 74 SI MM NOT_NAMED 1944-10-29 18:00:00 TS -13.6000 58.6000 main 733 724 _________OO___ -1 -13.6000 58.6000 TC 25 -13.6000 58.6000 1 4 129
1944297S05070 1945 74 SI MM NOT_NAMED 1944-10-29 21:00:00 TS -13.6947 58.7356 main 724 714 _________PP___ -1 -13.7075 58.7425 TC 25 -13.6819 58.7286 1 3 122
1944297S05070 1945 74 SI MM NOT_NAMED 1944-10-30 00:00:00 TS -13.7775 58.8889 main 716 707 _________OP___ -1 -13.8000 58.9000 TC 25 -13.7550 58.8778 1 3 119
1944297S05070 1945 74 SI MM NOT_NAMED 1944-10-30 03:00:00 TS -13.8603 59.0441 main 707 700 _________PP___ -1 -13.8700 59.0501 TC 25 -13.8506 59.0380 1 4 126
1944297S05070 1945 74 SI MM NOT_NAMED 1944-10-30 06:00:00 TS -14.0000 59.2000 main 700 681 _________OO___ -1 -14.0000 59.2000 TC 25 -14.0000 59.2000 7 5 143
1944297S05070 1945 74 SI MM NOT_NAMED 1944-10-30 09:00:00 TS -14.2522 59.3520 main 673 655 _________PP___ -1 -14.2700 59.3500 TC 25 -14.2344 59.3540 7 6 152
1944297S05070 1945 74 SI MM NOT_NAMED 1944-10-30 12:00:00 TS -14.5625 59.5037 main 644 615 _________OP___ -1 -14.6000 59.5000 TC 25 -14.5250 59.5074 7 7 155
1944297S05070 1945 74 SI MM NOT_NAMED 1944-10-30 15:00:00 TS -14.8728 59.6536 main 619 591 _________PP___ -1 -14.8925 59.6501 TC 25 -14.8531 59.6572 7 7 156
1944297S05070 1945 74 SI MM NOT_NAMED 1944-10-30 18:00:00 TS -15.2000 59.8000 main 591 564 _________OO___ -1 -15.2000 59.8000 TC 25 -15.2000 59.8000 7 7 157
1944297S05070 1945 74 SI MM NOT_NAMED 1944-10-30 21:00:00 TS -15.5462 59.9456 main 564 534 _________PP___ -1 -15.5425 59.9575 TC 25 -15.5500 59.9337 7 8 159
1944297S05070 1945 74 SI MM NOT_NAMED 1944-10-31 00:00:00 TS -15.9000 60.0799 main 534 510 _________OP___ -1 -15.9000 60.1000 TC 25 -15.9000 60.0598 7 7 161
1944297S05070 1945 74 SI MM NOT_NAMED 1944-10-31 03:00:00 TS -16.2513 60.1955 main 500 478 _________PP___ -1 -16.2525 60.2100 TC 25 -16.2500 60.1810 7 7 163
1944297S05070 1945 74 SI MM NOT_NAMED 1944-10-31 06:00:00 TS -16.6000 60.3000 main 478 _________OO___ -1 -16.6000 60.3000 TC 25 -16.6000 60.3000 7 7 164

IBTrACS Databaseについて

本データベースは、米国NOAAが公開する1842年以降の世界の熱帯低気圧のベストトラックデータアーカイブInternational Best Track Archive for Climate Stewardship (IBTrACS)を、ウェブで閲覧しやすい形式に変換したものです。

最終更新日:2021-11-26